createdAt,value
2022-08-07T00:02:41.084Z,63.66
2022-08-07T00:04:52.875Z,63.66
2022-08-07T00:07:19.430Z,63.80
2022-08-07T00:09:59.279Z,63.89
2022-08-07T00:12:31.862Z,63.89
2022-08-07T00:14:58.771Z,63.50
2022-08-07T00:17:25.048Z,63.86
2022-08-07T00:20:01.288Z,63.86
2022-08-07T00:22:35.050Z,63.98
2022-08-07T00:25:01.956Z,64.34
2022-08-07T00:27:29.366Z,64.70
2022-08-07T00:30:26.746Z,64.89
2022-08-07T00:32:54.055Z,65.10
2022-08-07T00:35:20.260Z,64.76
2022-08-07T00:37:49.392Z,65.09
2022-08-07T00:40:17.013Z,65.12
2022-08-07T00:43:03.194Z,65.28
2022-08-07T00:45:29.375Z,65.61
2022-08-07T00:48:09.145Z,65.23
2022-08-07T00:50:46.465Z,65.34
2022-08-07T00:53:17.883Z,65.58
2022-08-07T00:56:02.383Z,65.79
2022-08-07T00:58:29.693Z,66.33
2022-08-07T01:00:55.904Z,65.96
2022-08-07T01:03:54.847Z,66.35
2022-08-07T01:06:08.283Z,65.97
2022-08-07T01:08:34.476Z,65.90
2022-08-07T01:11:00.807Z,66.00
2022-08-07T01:13:55.543Z,66.05
2022-08-07T01:16:30.574Z,65.61
2022-08-07T01:18:57.026Z,65.73
2022-08-07T01:21:25.871Z,65.70
2022-08-07T01:23:52.460Z,65.84
2022-08-07T01:26:19.526Z,65.91
2022-08-07T01:28:48.365Z,66.03
2022-08-07T01:31:15.454Z,66.16
2022-08-07T01:33:55.399Z,65.99
2022-08-07T01:36:22.589Z,65.67
2022-08-07T01:39:00.451Z,65.82
2022-08-07T01:41:27.002Z,65.96
2022-08-07T01:43:53.295Z,66.30
2022-08-07T01:46:19.486Z,66.40
2022-08-07T01:48:47.792Z,66.49
2022-08-07T01:52:02.765Z,66.46
2022-08-07T01:54:00.763Z,66.32
2022-08-07T01:56:36.269Z,66.65
2022-08-07T01:59:05.000Z,66.74
2022-08-07T02:02:02.015Z,66.50
2022-08-07T02:04:17.461Z,66.74
2022-08-07T02:06:43.786Z,66.90
2022-08-07T02:09:53.299Z,67.15
2022-08-07T02:12:05.041Z,66.66
2022-08-07T02:14:40.268Z,66.99
2022-08-07T02:17:07.444Z,66.39
2022-08-07T02:20:05.206Z,66.72
2022-08-07T02:22:20.091Z,66.81
2022-08-07T02:24:46.610Z,66.96
2022-08-07T02:27:14.770Z,66.97
2022-08-07T02:29:48.966Z,66.70
2022-08-07T02:32:23.450Z,66.90
2022-08-07T02:34:53.234Z,66.73
2022-08-07T02:37:19.441Z,66.82
2022-08-07T02:40:02.036Z,66.64
2022-08-07T02:42:31.834Z,66.92
2022-08-07T02:44:58.448Z,66.61
2022-08-07T02:47:24.763Z,66.98
2022-08-07T02:49:57.796Z,67.38
2022-08-07T02:52:31.141Z,67.72
2022-08-07T02:54:58.679Z,67.21
2022-08-07T02:57:31.037Z,67.01
2022-08-07T03:00:05.141Z,67.08
2022-08-07T03:02:37.233Z,67.52
2022-08-07T03:05:08.278Z,67.70
2022-08-07T03:07:43.222Z,67.45
2022-08-07T03:10:20.661Z,67.62
2022-08-07T03:12:49.746Z,67.22
2022-08-07T03:15:30.303Z,67.78
2022-08-07T03:18:04.339Z,68.10
2022-08-07T03:20:31.642Z,68.46
2022-08-07T03:22:57.825Z,67.90
2022-08-07T03:25:24.899Z,67.84
2022-08-07T03:28:08.873Z,67.94
2022-08-07T03:30:36.175Z,68.01
2022-08-07T03:33:02.374Z,67.74
2022-08-07T03:35:43.971Z,68.46
2022-08-07T03:38:15.655Z,67.54
2022-08-07T03:40:44.471Z,67.59
2022-08-07T03:43:14.564Z,67.86
2022-08-07T03:45:43.752Z,67.92
2022-08-07T03:48:13.954Z,68.12
2022-08-07T03:50:43.272Z,68.02
2022-08-07T03:54:01.883Z,68.16
2022-08-07T03:56:08.744Z,68.29
2022-08-07T03:59:08.476Z,68.66
2022-08-07T04:01:26.159Z,68.91
2022-08-07T04:03:55.082Z,68.84
2022-08-07T04:06:36.990Z,68.75
2022-08-07T04:09:04.751Z,68.89
2022-08-07T04:12:26.800Z,68.70
2022-08-07T04:14:37.677Z,69.46
2022-08-07T04:17:03.962Z,69.65
2022-08-07T04:19:51.036Z,69.39
2022-08-07T04:22:17.687Z,67.70
2022-08-07T04:24:44.113Z,67.05
2022-08-07T04:27:20.463Z,66.77
2022-08-07T04:30:02.314Z,66.71
2022-08-07T04:32:34.594Z,66.85
2022-08-07T04:35:01.356Z,67.71
2022-08-07T04:37:30.241Z,66.92
2022-08-07T04:40:16.425Z,62.59
2022-08-07T04:42:45.921Z,59.52
2022-08-07T04:45:44.411Z,55.89
2022-08-07T04:48:09.878Z,53.29
2022-08-07T04:50:37.003Z,51.72
2022-08-07T04:53:03.415Z,50.92
2022-08-07T04:58:11.157Z,50.80
2022-08-07T04:58:34.853Z,50.66
2022-08-07T05:01:02.067Z,50.75
2022-08-07T05:04:00.113Z,49.91
2022-08-07T05:06:19.699Z,50.10
2022-08-07T05:09:01.331Z,50.51
2022-08-07T05:11:57.203Z,50.41
2022-08-07T05:14:56.172Z,50.97
2022-08-07T05:17:00.671Z,50.93
2022-08-07T05:19:32.852Z,51.08
2022-08-07T05:22:11.254Z,51.60
2022-08-07T05:24:40.330Z,52.28
2022-08-07T05:27:07.019Z,53.22
2022-08-07T05:29:50.979Z,53.24
2022-08-07T05:32:18.485Z,53.66
2022-08-07T05:34:46.033Z,54.24
2022-08-07T05:37:12.873Z,54.09
2022-08-07T05:40:17.371Z,53.86
2022-08-07T05:42:33.292Z,54.29
2022-08-07T05:45:14.200Z,55.00
2022-08-07T05:48:01.777Z,55.70
2022-08-07T05:50:27.402Z,53.93
2022-08-07T05:52:54.033Z,54.32
2022-08-07T05:55:21.406Z,55.71
2022-08-07T05:57:49.125Z,55.57
2022-08-07T06:00:17.848Z,53.82
2022-08-07T06:02:44.201Z,55.69
2022-08-07T06:05:11.003Z,55.06
2022-08-07T06:08:13.170Z,54.68
2022-08-07T06:10:28.339Z,54.25
2022-08-07T06:12:54.582Z,53.58
2022-08-07T06:15:20.892Z,53.84
2022-08-07T06:17:53.759Z,57.10
2022-08-07T06:20:31.651Z,55.89
2022-08-07T06:23:02.445Z,53.81
2022-08-07T06:25:54.266Z,54.14
2022-08-07T06:28:27.766Z,52.29
2022-08-07T06:30:54.478Z,52.73
2022-08-07T06:33:22.540Z,54.71
2022-08-07T06:36:12.415Z,54.53
2022-08-07T06:38:35.384Z,52.42
2022-08-07T06:41:02.087Z,52.98
2022-08-07T06:43:28.366Z,50.82
2022-08-07T06:46:05.899Z,50.84
2022-08-07T06:48:37.855Z,49.46
2022-08-07T06:51:09.558Z,49.89
2022-08-07T06:55:28.553Z,49.73
2022-08-07T06:56:21.994Z,47.49
2022-08-07T07:00:14.348Z,47.43
2022-08-07T07:01:44.099Z,47.23
2022-08-07T07:04:28.290Z,48.03
2022-08-07T07:07:01.083Z,46.13
2022-08-07T07:09:31.250Z,44.95
2022-08-07T07:12:07.589Z,45.10
2022-08-07T07:14:40.318Z,44.13
2022-08-07T07:17:06.826Z,43.97
2022-08-07T07:19:57.204Z,44.76
2022-08-07T07:22:36.280Z,44.50
2022-08-07T07:26:32.401Z,46.08
2022-08-07T07:27:58.507Z,43.88
2022-08-07T07:30:37.898Z,44.33
2022-08-07T07:33:04.983Z,43.46
2022-08-07T07:35:33.517Z,42.89
2022-08-07T07:38:02.415Z,42.38
2022-08-07T07:40:31.160Z,44.00
2022-08-07T07:42:57.380Z,42.16
2022-08-07T07:46:35.631Z,41.96
2022-08-07T07:48:11.200Z,42.18
2022-08-07T07:50:40.239Z,42.57
2022-08-07T07:53:20.604Z,43.08
2022-08-07T07:55:54.846Z,42.12
2022-08-07T07:58:24.234Z,41.78
2022-08-07T08:00:54.218Z,42.27
2022-08-07T08:04:10.873Z,41.81
2022-08-07T08:06:07.639Z,41.04
2022-08-07T08:08:39.283Z,41.11
2022-08-07T08:11:09.295Z,41.72
2022-08-07T08:13:54.929Z,41.52
2022-08-07T08:16:25.189Z,41.33
2022-08-07T08:18:51.629Z,42.40
2022-08-07T08:21:17.816Z,41.99
2022-08-07T08:23:44.020Z,43.12
2022-08-07T08:26:12.363Z,42.61
2022-08-07T08:28:43.360Z,43.36
2022-08-07T08:31:15.749Z,41.58
2022-08-07T08:33:43.787Z,41.42
2022-08-07T08:36:15.942Z,43.23
2022-08-07T08:38:42.142Z,44.18
2022-08-07T08:41:10.843Z,43.99
2022-08-07T08:43:42.990Z,42.91
2022-08-07T08:46:16.699Z,42.18
2022-08-07T08:48:46.483Z,41.34
2022-08-07T08:51:26.055Z,41.15
2022-08-07T08:54:03.490Z,42.27
2022-08-07T08:56:29.732Z,41.36
2022-08-07T08:58:55.948Z,38.91
2022-08-07T09:01:22.217Z,39.75
2022-08-07T09:03:55.718Z,39.59
2022-08-07T09:06:23.050Z,40.53
2022-08-07T09:08:50.949Z,39.79
2022-08-07T09:11:24.247Z,40.96
2022-08-07T09:14:03.814Z,41.19
2022-08-07T09:16:30.761Z,40.68
2022-08-07T09:18:58.763Z,40.47
2022-08-07T09:21:33.858Z,40.91
2022-08-07T09:24:31.401Z,41.12
2022-08-07T09:26:57.514Z,40.51
2022-08-07T09:30:06.697Z,40.40
2022-08-07T09:32:16.957Z,41.59
2022-08-07T09:34:44.926Z,41.57
2022-08-07T09:37:20.336Z,40.59
2022-08-07T09:39:59.797Z,40.47
2022-08-07T09:42:28.371Z,40.97
2022-08-07T09:47:27.706Z,40.13
2022-08-07T09:47:59.943Z,39.37
2022-08-07T09:50:30.289Z,39.86
2022-08-07T09:52:56.545Z,39.36
2022-08-07T09:55:29.981Z,39.35
2022-08-07T09:58:09.179Z,38.42
2022-08-07T10:00:37.751Z,39.79
2022-08-07T10:03:13.376Z,39.04
2022-08-07T10:06:01.207Z,37.58
2022-08-07T10:08:28.963Z,36.56
2022-08-07T10:12:00.135Z,38.10
2022-08-07T10:14:00.881Z,38.10
2022-08-07T10:16:27.968Z,38.25
2022-08-07T10:18:54.153Z,39.20
2022-08-07T10:21:50.838Z,38.20
2022-08-07T10:24:08.415Z,40.62
2022-08-07T10:26:35.069Z,38.87
2022-08-07T10:29:01.252Z,37.55
2022-08-07T10:31:28.235Z,37.60
2022-08-07T10:34:05.769Z,36.72
2022-08-07T10:36:39.383Z,36.79
2022-08-07T10:39:05.800Z,36.62
2022-08-07T10:41:53.169Z,36.68
2022-08-07T10:44:28.355Z,36.36
2022-08-07T10:47:04.334Z,36.97
2022-08-07T10:49:49.147Z,37.91
2022-08-07T10:52:17.393Z,37.87
2022-08-07T10:54:53.251Z,37.50
2022-08-07T10:57:34.676Z,35.52
2022-08-07T11:00:01.053Z,34.48
2022-08-07T11:02:34.167Z,34.90
2022-08-07T11:05:04.260Z,35.78
2022-08-07T11:07:58.981Z,35.38
2022-08-07T11:10:22.999Z,34.81
2022-08-07T11:13:02.300Z,35.43
2022-08-07T11:15:31.950Z,36.52
2022-08-07T11:18:03.554Z,36.92
2022-08-07T11:20:30.728Z,35.40
2022-08-07T11:22:56.923Z,34.15
2022-08-07T11:25:23.343Z,34.42
2022-08-07T11:28:01.358Z,34.83
2022-08-07T11:30:38.998Z,35.56
2022-08-07T11:33:08.029Z,34.34
2022-08-07T11:35:59.559Z,34.00
2022-08-07T11:38:28.241Z,33.19
2022-08-07T11:40:54.629Z,34.73
2022-08-07T11:43:29.589Z,33.75
2022-08-07T11:46:08.539Z,34.34
2022-08-07T11:48:35.621Z,33.30
2022-08-07T11:51:03.801Z,34.93
2022-08-07T11:53:30.037Z,35.07
2022-08-07T11:56:13.927Z,32.19
2022-08-07T11:58:49.827Z,32.97
2022-08-07T12:01:20.192Z,31.47
2022-08-07T12:03:48.266Z,32.35
2022-08-07T12:06:36.241Z,32.81
2022-08-07T12:09:01.055Z,31.36
2022-08-07T12:11:32.424Z,32.01
2022-08-07T12:13:58.871Z,32.16
2022-08-07T12:16:30.508Z,31.82
2022-08-07T12:18:57.248Z,30.29
2022-08-07T12:21:55.846Z,32.35
2022-08-07T12:24:36.758Z,31.91
2022-08-07T12:26:55.777Z,32.72
2022-08-07T12:29:38.204Z,31.57
2022-08-07T12:32:06.362Z,31.18
2022-08-07T12:34:38.448Z,32.14
2022-08-07T12:37:08.180Z,31.66
2022-08-07T12:39:50.452Z,31.56
2022-08-07T12:42:17.351Z,31.08
2022-08-07T12:44:53.287Z,30.64
2022-08-07T12:47:21.845Z,31.93
2022-08-07T12:50:04.725Z,32.77
2022-08-07T12:52:33.972Z,31.49
2022-08-07T12:55:05.119Z,31.51
2022-08-07T12:57:39.045Z,32.62
2022-08-07T13:00:21.005Z,32.01
2022-08-07T13:02:58.783Z,33.62
2022-08-07T13:06:02.579Z,31.61
2022-08-07T13:08:11.899Z,30.21
2022-08-07T13:10:51.383Z,31.33
2022-08-07T13:13:47.426Z,29.27
2022-08-07T13:16:04.772Z,31.16
2022-08-07T13:18:31.002Z,31.23
2022-08-07T13:21:00.267Z,30.21
2022-08-07T13:24:02.011Z,28.98
2022-08-07T13:26:16.012Z,28.17
2022-08-07T13:28:44.511Z,28.55
2022-08-07T13:31:13.497Z,28.16
2022-08-07T13:34:34.553Z,27.90
2022-08-07T13:36:26.223Z,28.93
2022-08-07T13:38:54.364Z,27.99
2022-08-07T13:41:20.935Z,28.81
2022-08-07T13:43:52.560Z,29.02
2022-08-07T13:46:26.339Z,28.20
2022-08-07T13:48:58.646Z,29.30
2022-08-07T13:51:28.384Z,28.15
2022-08-07T13:54:16.643Z,29.36
2022-08-07T13:56:51.916Z,28.88
2022-08-07T13:59:22.219Z,27.43
2022-08-07T14:01:51.215Z,27.71
2022-08-07T14:04:35.724Z,27.75
2022-08-07T14:07:03.538Z,28.07
2022-08-07T14:10:02.888Z,28.05
2022-08-07T14:12:16.302Z,28.30
2022-08-07T14:14:53.716Z,27.34
2022-08-07T14:18:12.152Z,28.36
2022-08-07T14:20:40.067Z,28.23
2022-08-07T14:22:52.300Z,27.77
2022-08-07T14:25:18.600Z,28.13
2022-08-07T14:28:12.965Z,28.21
2022-08-07T14:30:32.600Z,27.22
2022-08-07T14:32:59.446Z,27.20
2022-08-07T14:38:26.780Z,27.78
2022-08-07T14:40:57.691Z,28.45
2022-08-07T14:43:57.265Z,28.28
2022-08-07T14:46:10.522Z,27.96
2022-08-07T14:48:36.750Z,28.03
2022-08-07T14:51:03.002Z,27.64
2022-08-07T14:54:03.605Z,27.77
2022-08-07T14:59:03.238Z,29.18
2022-08-07T15:04:28.622Z,27.48
2022-08-07T15:06:55.313Z,27.25
2022-08-07T15:09:57.782Z,28.22
2022-08-07T15:12:07.764Z,27.60
2022-08-07T15:14:35.926Z,28.17
2022-08-07T15:17:22.500Z,28.00
2022-08-07T15:20:32.368Z,28.04
2022-08-07T15:22:38.025Z,28.74
2022-08-07T15:25:17.368Z,28.47
2022-08-07T15:28:30.823Z,28.32
2022-08-07T15:30:31.971Z,28.90
2022-08-07T15:36:02.371Z,30.00
2022-08-07T15:38:33.061Z,28.90
2022-08-07T15:41:24.356Z,29.33
2022-08-07T15:44:03.199Z,29.59
2022-08-07T15:49:15.650Z,30.05
2022-08-07T15:54:24.106Z,30.76
2022-08-07T15:56:52.536Z,30.30
2022-08-07T15:59:18.764Z,29.57
2022-08-07T16:01:44.939Z,30.68
2022-08-07T16:04:28.324Z,29.48
2022-08-07T16:06:58.255Z,30.14
2022-08-07T16:09:41.946Z,28.98
2022-08-07T16:12:12.154Z,28.68
2022-08-07T16:14:38.617Z,28.29
2022-08-07T16:17:15.103Z,28.46
2022-08-07T16:19:58.680Z,29.10
2022-08-07T16:22:33.354Z,29.74
2022-08-07T16:25:02.422Z,28.96
2022-08-07T16:27:40.448Z,28.42
2022-08-07T16:30:31.043Z,29.68
2022-08-07T16:32:54.671Z,29.07
2022-08-07T16:35:52.068Z,28.53
2022-08-07T16:38:11.290Z,29.53
2022-08-07T16:40:51.185Z,30.35
2022-08-07T16:43:23.912Z,28.70
2022-08-07T16:47:02.951Z,29.87
2022-08-07T16:58:00.837Z,29.22
2022-08-07T17:00:14.993Z,29.89
2022-08-07T17:02:51.174Z,29.51
2022-08-07T17:06:01.759Z,30.02
2022-08-07T17:08:09.127Z,29.95
2022-08-07T17:10:35.627Z,29.73
2022-08-07T17:13:03.475Z,30.03
2022-08-07T17:15:44.563Z,29.93
2022-08-07T17:18:16.054Z,30.43
2022-08-07T17:20:42.504Z,29.75
2022-08-07T17:23:13.176Z,30.33
2022-08-07T17:25:47.311Z,30.29
2022-08-07T17:28:19.457Z,30.27
2022-08-07T17:30:57.562Z,30.29
2022-08-07T17:34:10.229Z,30.84
2022-08-07T17:36:13.743Z,30.73
2022-08-07T17:38:47.161Z,30.56
2022-08-07T17:42:04.182Z,30.61
2022-08-07T17:44:05.836Z,30.86
2022-08-07T17:46:34.803Z,31.02
2022-08-07T17:49:01.051Z,30.85
2022-08-07T17:51:49.547Z,31.03
2022-08-07T17:54:29.522Z,30.74
2022-08-07T17:57:18.677Z,31.57
2022-08-07T17:59:45.560Z,31.63
2022-08-07T18:02:16.909Z,32.18
2022-08-07T18:04:49.739Z,32.38
2022-08-07T18:07:23.745Z,31.81
2022-08-07T18:10:06.907Z,33.07
2022-08-07T18:12:34.072Z,32.86
2022-08-07T18:15:00.554Z,33.07
2022-08-07T18:18:33.068Z,33.08
2022-08-07T18:21:10.406Z,33.36
2022-08-07T18:22:59.231Z,33.44
2022-08-07T18:25:40.170Z,33.88
2022-08-07T18:28:08.719Z,33.82
2022-08-07T18:30:37.598Z,34.25
2022-08-07T18:33:10.723Z,34.20
2022-08-07T18:35:51.831Z,34.87
2022-08-07T18:38:55.245Z,34.43
2022-08-07T18:41:10.231Z,34.62
2022-08-07T18:43:43.463Z,34.79
2022-08-07T18:46:25.157Z,35.27
2022-08-07T18:50:30.515Z,35.85
2022-08-07T18:52:34.673Z,36.23
2022-08-07T18:54:30.583Z,38.91
2022-08-07T18:56:58.413Z,39.46
2022-08-07T18:59:46.861Z,39.89
2022-08-07T19:02:36.451Z,39.50
2022-08-07T19:05:14.829Z,40.36
2022-08-07T19:07:51.664Z,41.06
2022-08-07T19:10:23.828Z,41.80
2022-08-07T19:12:59.549Z,42.20
2022-08-07T19:16:04.241Z,41.59
2022-08-07T19:18:34.685Z,41.99
2022-08-07T19:21:09.613Z,42.11
2022-08-07T19:23:59.081Z,42.09
2022-08-07T19:26:29.250Z,42.86
2022-08-07T19:30:56.548Z,43.64
2022-08-07T19:32:07.779Z,42.80
2022-08-07T19:34:33.698Z,43.53
2022-08-07T19:37:09.822Z,43.38
2022-08-07T19:39:57.782Z,42.76
2022-08-07T19:42:30.359Z,43.50
2022-08-07T19:44:56.838Z,44.50
2022-08-07T19:47:27.259Z,44.01
2022-08-07T19:49:56.357Z,44.73
2022-08-07T19:52:24.882Z,44.85
2022-08-07T19:54:56.497Z,44.59
2022-08-07T19:58:02.927Z,44.60
2022-08-07T20:00:10.148Z,45.15
2022-08-07T20:02:38.923Z,45.50
2022-08-07T20:05:07.832Z,45.88
2022-08-07T20:07:45.854Z,46.14
2022-08-07T20:10:35.616Z,45.64
2022-08-07T20:13:00.481Z,45.51
2022-08-07T20:15:33.110Z,46.07
2022-08-07T20:18:03.517Z,46.15
2022-08-07T20:20:30.534Z,46.90
2022-08-07T20:22:56.764Z,46.45
2022-08-07T20:25:23.320Z,46.44
2022-08-07T20:27:54.283Z,47.06
2022-08-07T20:30:24.925Z,47.11
2022-08-07T20:32:51.720Z,47.35
2022-08-07T20:35:22.003Z,47.98
2022-08-07T20:37:59.261Z,48.69
2022-08-07T20:40:32.787Z,49.66
2022-08-07T20:43:00.398Z,49.06
2022-08-07T20:46:24.221Z,49.09
2022-08-07T20:48:29.797Z,48.79
2022-08-07T20:50:57.891Z,48.57
2022-08-07T20:53:25.966Z,48.69
2022-08-07T20:56:10.311Z,49.15
2022-08-07T20:58:36.532Z,49.73
2022-08-07T21:01:04.685Z,49.83
2022-08-07T21:03:31.313Z,50.81
2022-08-07T21:06:00.824Z,50.64
2022-08-07T21:08:37.569Z,50.10
2022-08-07T21:11:05.227Z,50.40
2022-08-07T21:13:56.933Z,50.60
2022-08-07T21:16:23.020Z,50.91
2022-08-07T21:18:50.728Z,50.62
2022-08-07T21:21:19.608Z,50.78
2022-08-07T21:23:53.324Z,50.96
2022-08-07T21:26:19.509Z,51.16
2022-08-07T21:28:50.919Z,51.33
2022-08-07T21:31:17.477Z,51.12
2022-08-07T21:34:03.653Z,51.07
2022-08-07T21:36:33.086Z,51.30
2022-08-07T21:38:59.374Z,51.40
2022-08-07T21:41:26.198Z,51.14
2022-08-07T21:43:56.757Z,51.59
2022-08-07T21:46:25.273Z,51.56
2022-08-07T21:48:58.205Z,51.83
2022-08-07T21:51:25.008Z,51.89
2022-08-07T21:53:52.985Z,51.99
2022-08-07T21:56:40.302Z,51.83
2022-08-07T21:59:06.015Z,51.92
2022-08-07T22:02:07.217Z,52.42
2022-08-07T22:04:20.226Z,52.51
2022-08-07T22:06:49.584Z,52.63
2022-08-07T22:09:16.094Z,53.41
2022-08-07T22:11:52.989Z,53.93
2022-08-07T22:14:35.116Z,54.27
2022-08-07T22:17:02.853Z,54.32
2022-08-07T22:19:30.521Z,54.27
2022-08-07T22:22:01.865Z,53.90
2022-08-07T22:24:32.865Z,54.60
2022-08-07T22:26:59.495Z,54.19
2022-08-07T22:29:33.911Z,54.05
2022-08-07T22:32:12.771Z,54.21
2022-08-07T22:34:53.784Z,54.82
2022-08-07T22:37:20.044Z,54.55
2022-08-07T22:39:53.432Z,54.80
2022-08-07T22:42:53.915Z,54.98
2022-08-07T22:45:10.956Z,55.32
2022-08-07T22:47:52.641Z,55.48
2022-08-07T22:50:20.650Z,55.55
2022-08-07T22:52:55.155Z,56.08
2022-08-07T22:55:22.824Z,56.11
2022-08-07T22:57:49.859Z,56.06
2022-08-07T23:00:16.205Z,56.26
2022-08-07T23:02:42.467Z,56.02
2022-08-07T23:06:09.037Z,56.25
2022-08-07T23:07:56.780Z,56.87
2022-08-07T23:10:38.128Z,57.10
2022-08-07T23:13:07.409Z,58.02
2022-08-07T23:16:07.069Z,58.12
2022-08-07T23:18:20.259Z,57.95
2022-08-07T23:20:53.162Z,58.09
2022-08-07T23:24:04.470Z,58.10
2022-08-07T23:26:06.115Z,57.94
2022-08-07T23:28:32.284Z,58.10
2022-08-07T23:31:07.154Z,58.88
2022-08-07T23:34:33.935Z,58.19
2022-08-07T23:36:28.753Z,58.90
2022-08-07T23:38:55.466Z,58.27
2022-08-07T23:41:22.495Z,58.70
2022-08-07T23:43:59.344Z,58.80
2022-08-07T23:46:27.286Z,58.92
2022-08-07T23:48:53.664Z,58.68
2022-08-07T23:52:58.788Z,58.67
2022-08-07T23:54:11.716Z,59.17
2022-08-07T23:56:53.791Z,59.07
